KLRF

Little Rock AFB Airport

Jacksonville, Arkansas, USA
METAR KLRF 222356Z AUTO 00000KT 10SM CLR 11/09 A3019 RMK AO2 SLP228 T01140093 10189 20114 53002 $
Observed Flight Rules
Oct-22 @ 23:56 UTC (an hour ago) Visual Flight Rules
Visibility Clouds
10 miles
  • Clear skies
Temperatures Readings
Current 11°C / 52°F
Dewpoint 9°C / 48°F
Humidity 88%
Altimeter 30.19" Hg
Pressure 1022.8 hPa
Elevation 95
METAR KLRF 222356Z AUTO 00000KT 10SM CLR 11/09 A3019 RMK AO2 SLP228 T01140093 10189 20114 53002 $
Observed Flight Rules
Oct-22 @ 23:56 UTC
(an hour ago)
VFR
Clouds
  • Clear skies
Temperature Dewpoint
11°C / 52°F 9°C / 48°F
Humidity Altimeter Pressure
88% 30.19" Hg 1022.8 hPa